Time;durP1;ratioP1;P1;durP2;ratioP2;P2;SDS_P1;SDS_P2;PMS_P1;PMS_P2;Temp;Humidity;BMP_temperature;BMP_pressure;BME280_temperature;BME280_humidity;BME280_pressure;Samples;Min_cycle;Max_cycle;Signal;HPM_P1;HPM_P2
2022/07/18 00:02:15;;;;;;;4.10;2.30;;;;;;;22.39;35.97;98171.41;5075521;28;20202;-69
2022/07/18 00:04:41;;;;;;;6.47;2.50;;;;;;;22.44;36.08;98170.81;5069676;28;20583;-68
2022/07/18 00:07:06;;;;;;;3.90;1.90;;;;;;;22.41;36.13;98168.56;5085590;28;20280;-69
2022/07/18 00:09:32;;;;;;;6.10;2.20;;;;;;;22.34;36.59;98170.38;5088377;28;20185;-69
2022/07/18 00:11:57;;;;;;;5.40;2.00;;;;;;;22.26;36.45;98168.72;5067294;28;20218;-70
2022/07/18 00:14:23;;;;;;;4.30;2.10;;;;;;;22.22;36.70;98170.16;5082927;28;20214;-69
2022/07/18 00:16:49;;;;;;;8.70;2.27;;;;;;;22.18;36.60;98174.25;5082684;28;20186;-68
2022/07/18 00:19:15;;;;;;;6.50;2.70;;;;;;;22.18;36.92;98164.41;5084421;28;20190;-68
2022/07/18 00:21:41;;;;;;;3.13;2.20;;;;;;;22.24;37.29;98168.94;5077343;28;20734;-68
2022/07/18 00:24:06;;;;;;;3.53;2.40;;;;;;;22.22;37.04;98175.50;5074356;28;20413;-69
2022/07/18 00:26:31;;;;;;;3.03;2.13;;;;;;;22.11;37.32;98179.59;5083311;28;20652;-68
2022/07/18 00:28:57;;;;;;;6.60;2.20;;;;;;;22.20;37.11;98172.22;5085315;28;20239;-68
2022/07/18 00:31:22;;;;;;;3.40;2.50;;;;;;;22.13;37.47;98169.53;5084405;28;20253;-70
2022/07/18 00:33:48;;;;;;;2.50;1.70;;;;;;;22.09;37.60;98170.97;5082210;28;20218;-68
2022/07/18 00:36:13;;;;;;;3.87;2.50;;;;;;;21.99;37.81;98175.88;5083002;28;20292;-69
2022/07/18 00:38:39;;;;;;;6.20;2.00;;;;;;;21.91;38.19;98168.88;5082939;28;20554;-68
2022/07/18 00:41:04;;;;;;;2.57;2.37;;;;;;;21.97;38.01;98175.25;5084453;28;20193;-68
2022/07/18 00:43:30;;;;;;;6.23;2.33;;;;;;;21.96;38.00;98170.94;5078977;28;20185;-69
2022/07/18 00:45:56;;;;;;;2.70;2.07;;;;;;;21.85;38.32;98170.50;5082861;28;21078;-70
2022/07/18 00:48:21;;;;;;;4.33;2.30;;;;;;;21.91;37.68;98167.06;5075147;28;20263;-68
2022/07/18 00:50:47;;;;;;;4.33;1.80;;;;;;;21.78;38.11;98161.69;5080935;28;20177;-68
2022/07/18 00:53:13;;;;;;;3.60;1.83;;;;;;;21.79;37.84;98161.47;5080561;28;20267;-68
2022/07/18 00:55:41;;;;;;;5.73;2.20;;;;;;;21.70;38.53;98164.50;5078027;28;20178;-68
2022/07/18 00:58:08;;;;;;;6.00;2.20;;;;;;;21.61;38.25;98162.03;5081315;28;20434;-70
2022/07/18 01:03:18;;;;;;;3.23;2.17;;;;;;;21.65;38.24;98162.44;5065330;28;20428;-69
2022/07/18 01:05:43;;;;;;;3.27;2.00;;;;;;;21.55;37.81;98172.66;5072478;28;20865;-69
2022/07/18 01:08:09;;;;;;;2.97;1.80;;;;;;;21.55;37.88;98160.13;5078720;28;20179;-70
2022/07/18 01:10:34;;;;;;;3.40;3.10;;;;;;;21.47;37.61;98157.63;5081433;28;20185;-68
2022/07/18 01:13:00;;;;;;;2.43;1.80;;;;;;;21.45;37.99;98165.84;5086926;28;20638;-69
2022/07/18 01:15:25;;;;;;;3.73;2.03;;;;;;;21.48;37.61;98165.44;5088456;28;20189;-69
2022/07/18 01:17:51;;;;;;;3.67;3.20;;;;;;;21.43;37.61;98165.22;5080615;28;20417;-68
2022/07/18 01:20:16;;;;;;;4.63;3.30;;;;;;;21.40;37.46;98167.47;5076233;28;20771;-68
2022/07/18 01:22:42;;;;;;;3.10;2.27;;;;;;;21.40;37.42;98162.13;5066063;28;20198;-69
2022/07/18 01:25:12;;;;;;;2.80;2.10;;;;;;;21.30;37.84;98165.16;5086599;28;20264;-69
2022/07/18 01:27:37;;;;;;;2.33;1.57;;;;;;;21.32;37.70;98166.59;5078680;28;20178;-69
2022/07/18 01:30:03;;;;;;;5.03;2.50;;;;;;;21.24;37.48;98158.78;5082417;28;20432;-68
2022/07/18 01:32:29;;;;;;;2.37;1.63;;;;;;;21.26;37.66;98159.41;5034325;28;1097690;-69
2022/07/18 01:34:54;;;;;;;3.37;2.20;;;;;;;21.19;37.38;98161.19;5071379;28;20202;-70
2022/07/18 01:37:20;;;;;;;5.93;1.80;;;;;;;21.27;37.15;98160.22;5080978;28;20603;-68
2022/07/18 01:39:46;;;;;;;5.80;1.80;;;;;;;21.21;37.74;98164.50;5084252;28;20887;-69
2022/07/18 01:42:12;;;;;;;2.70;1.70;;;;;;;21.14;37.78;98159.13;5083121;28;20602;-68
2022/07/18 01:44:38;;;;;;;1.40;1.30;;;;;;;21.06;37.64;98161.97;5086617;28;20182;-69
2022/07/18 01:47:06;;;;;;;6.70;2.10;;;;;;;21.01;37.44;98159.06;5079214;28;20417;-69
2022/07/18 01:49:31;;;;;;;4.40;1.60;;;;;;;21.08;37.32;98161.75;5076534;28;20431;-70
2022/07/18 01:51:57;;;;;;;3.80;1.70;;;;;;;21.01;37.43;98151.06;5080430;28;20593;-70
2022/07/18 01:54:24;;;;;;;3.00;1.50;;;;;;;21.01;37.38;98154.56;5088773;28;20612;-70
2022/07/18 01:56:50;;;;;;;1.93;1.60;;;;;;;21.00;37.44;98158.25;5076526;28;20224;-71
2022/07/18 01:59:16;;;;;;;3.10;1.43;;;;;;;21.02;37.33;98156.22;5088298;28;20423;-68
2022/07/18 02:01:42;;;;;;;2.10;1.53;;;;;;;20.95;37.15;98160.66;5084254;28;20444;-69
2022/07/18 02:04:07;;;;;;;2.40;1.63;;;;;;;20.92;37.92;98149.59;5079029;28;20428;-69
2022/07/18 02:06:33;;;;;;;2.27;1.53;;;;;;;20.82;37.59;98157.91;5088004;28;20182;-71
2022/07/18 02:08:58;;;;;;;2.90;1.50;;;;;;;20.82;37.82;98157.91;5080216;28;20194;-71
2022/07/18 02:11:24;;;;;;;3.63;1.77;;;;;;;20.85;38.07;98162.88;5081809;28;20582;-68
2022/07/18 02:13:49;;;;;;;1.60;1.50;;;;;;;20.83;38.24;98162.22;5082053;28;20285;-69
2022/07/18 02:16:15;;;;;;;2.47;1.53;;;;;;;20.83;38.32;98162.22;5080544;28;20228;-69
2022/07/18 02:18:41;;;;;;;3.90;1.80;;;;;;;20.78;38.25;98162.81;5087472;28;20231;-68
2022/07/18 02:21:07;;;;;;;1.60;1.50;;;;;;;20.77;38.70;98171.00;5078237;28;20190;-68
2022/07/18 02:23:33;;;;;;;1.87;1.70;;;;;;;20.72;38.50;98153.75;5089607;28;20178;-68
2022/07/18 02:25:58;;;;;;;5.03;1.73;;;;;;;20.66;38.71;98167.00;5080733;28;20186;-68
2022/07/18 02:28:24;;;;;;;2.10;1.57;;;;;;;20.58;38.78;98161.84;5080616;28;20416;-69
2022/07/18 02:30:49;;;;;;;1.93;1.40;;;;;;;20.62;38.41;98161.25;5081174;28;20178;-67
2022/07/18 02:33:15;;;;;;;1.93;1.67;;;;;;;20.60;38.25;98173.13;5079613;28;20198;-68
2022/07/18 02:35:41;;;;;;;4.00;1.53;;;;;;;20.58;38.23;98165.31;5091019;28;20184;-69
2022/07/18 02:38:07;;;;;;;2.70;1.40;;;;;;;20.50;38.16;98168.94;5083350;28;20711;-68
2022/07/18 02:40:33;;;;;;;1.90;1.60;;;;;;;20.37;38.85;98169.66;5092948;28;20534;-69
2022/07/18 02:42:58;;;;;;;1.93;1.70;;;;;;;20.36;38.93;98167.16;5075958;28;20440;-69
2022/07/18 02:45:24;;;;;;;4.23;1.60;;;;;;;20.36;39.18;98165.34;5081009;28;20641;-68
2022/07/18 02:47:49;;;;;;;3.20;1.33;;;;;;;20.38;39.31;98171.31;5087705;28;20185;-68
2022/07/18 02:50:15;;;;;;;2.00;1.80;;;;;;;20.39;38.98;98172.97;5083680;28;20650;-70
2022/07/18 02:52:41;;;;;;;2.17;1.77;;;;;;;20.42;39.21;98169.09;5090713;28;20202;-69
2022/07/18 02:55:07;;;;;;;2.80;1.40;;;;;;;20.39;38.87;98172.97;5083155;28;20641;-69
2022/07/18 02:57:33;;;;;;;2.03;1.67;;;;;;;20.34;38.91;98170.03;5073136;28;20282;-69
2022/07/18 02:59:58;;;;;;;3.10;1.57;;;;;;;20.27;38.89;98174.50;5083925;28;20951;-70
2022/07/18 03:02:24;;;;;;;2.70;1.83;;;;;;;20.21;39.64;98169.91;5083980;28;20581;-70
2022/07/18 03:04:49;;;;;;;3.83;1.70;;;;;;;20.16;39.67;98172.34;5078239;28;20179;-69
2022/07/18 03:07:15;;;;;;;5.27;1.60;;;;;;;20.17;39.65;98168.66;5082997;28;20178;-69
2022/07/18 03:09:40;;;;;;;2.20;1.77;;;;;;;20.14;39.54;98169.84;5086669;28;20245;-69
2022/07/18 03:12:06;;;;;;;2.43;1.60;;;;;;;20.13;39.71;98178.03;5079238;28;20236;-68
2022/07/18 03:14:32;;;;;;;2.47;1.60;;;;;;;20.17;39.26;98176.63;5088001;28;20286;-70
2022/07/18 03:16:58;;;;;;;3.43;1.70;;;;;;;20.17;39.33;98173.97;5084205;28;20200;-69
2022/07/18 03:19:23;;;;;;;2.50;1.50;;;;;;;20.18;39.49;98175.63;5086379;28;20459;-69
2022/07/18 03:21:48;;;;;;;5.13;2.03;;;;;;;20.08;39.88;98168.78;5073029;28;20217;-69
2022/07/18 03:24:14;;;;;;;5.33;1.80;;;;;;;20.10;39.75;98168.56;5086412;28;20174;-69
2022/07/18 03:26:40;;;;;;;3.03;1.80;;;;;;;20.15;39.72;98174.16;5085770;28;20182;-70
2022/07/18 03:29:06;;;;;;;4.10;1.67;;;;;;;20.09;39.84;98172.28;5080842;28;20181;-69
2022/07/18 03:31:31;;;;;;;3.63;1.90;;;;;;;20.10;39.98;98172.09;5087528;28;20538;-70
2022/07/18 03:33:57;;;;;;;2.50;1.80;;;;;;;20.04;40.47;98170.16;5071452;28;20211;-69
2022/07/18 03:36:22;;;;;;;4.93;2.03;;;;;;;20.01;40.40;98170.56;5068765;28;20213;-69
2022/07/18 03:38:48;;;;;;;2.50;1.93;;;;;;;20.03;40.12;98173.03;5085749;28;20203;-70
2022/07/18 03:41:13;;;;;;;6.17;2.13;;;;;;;20.03;40.20;98179.19;5087071;28;20206;-69
2022/07/18 03:43:39;;;;;;;4.00;2.40;;;;;;;19.98;40.60;98178.91;5059559;28;20186;-68
2022/07/18 03:46:05;;;;;;;6.13;2.40;;;;;;;19.99;41.13;98172.59;5066131;28;20297;-70
2022/07/18 03:48:31;;;;;;;5.87;2.03;;;;;;;19.95;41.09;98171.31;5071207;28;20429;-69
2022/07/18 03:50:56;;;;;;;2.50;2.10;;;;;;;19.81;41.42;98170.31;5071394;28;20424;-70
2022/07/18 03:53:22;;;;;;;4.07;1.70;;;;;;;19.83;41.66;98168.31;5069185;28;20635;-68
2022/07/18 03:55:47;;;;;;;3.67;2.30;;;;;;;19.87;41.50;98174.09;5071554;28;20296;-69
2022/07/18 03:58:13;;;;;;;2.83;2.53;;;;;;;19.87;41.68;98166.13;5070784;28;20186;-70
2022/07/18 04:00:38;;;;;;;2.30;2.10;;;;;;;19.86;41.83;98164.44;5070317;28;20194;-68
2022/07/18 04:03:04;;;;;;;3.00;2.20;;;;;;;19.85;41.97;98170.75;5071433;28;20206;-71
2022/07/18 04:05:29;;;;;;;4.43;2.00;;;;;;;19.85;41.75;98162.78;5071784;28;20178;-69
2022/07/18 04:07:55;;;;;;;4.33;2.40;;;;;;;19.82;42.00;98164.00;5071262;28;20193;-67
2022/07/18 04:10:20;;;;;;;4.90;2.20;;;;;;;19.81;42.25;98165.00;5071602;28;20186;-70
2022/07/18 04:12:52;;;;;;;5.23;2.47;;;;;;;19.82;42.44;98165.81;5071507;28;20293;-70
2022/07/18 04:15:19;;;;;;;5.70;2.33;;;;;;;19.86;42.10;98164.44;5070021;28;20208;-68
2022/07/18 04:17:45;;;;;;;4.20;1.90;;;;;;;19.87;42.18;98166.94;5068169;28;20431;-69
2022/07/18 04:20:11;;;;;;;5.67;2.50;;;;;;;19.82;42.16;98165.81;5072379;28;20421;-69
2022/07/18 04:22:51;;;;;;;5.30;2.80;;;;;;;19.79;41.93;98167.84;5071016;28;20237;-69
2022/07/18 04:25:18;;;;;;;5.87;2.10;;;;;;;19.86;42.19;98170.59;5069641;28;20196;-68
2022/07/18 04:27:44;;;;;;;4.70;2.30;;;;;;;19.91;42.08;98170.06;5070552;28;20421;-69
2022/07/18 04:30:10;;;;;;;5.43;2.50;;;;;;;19.87;42.50;98172.25;5071909;28;20937;-67
2022/07/18 04:32:36;;;;;;;4.43;2.40;;;;;;;19.90;42.30;98169.22;5069833;28;20297;-70
2022/07/18 04:35:02;;;;;;;3.10;2.50;;;;;;;19.93;42.60;98173.31;5070769;28;20548;-70
2022/07/18 04:37:30;;;;;;;5.83;2.87;;;;;;;19.96;43.02;98175.63;5068389;28;20919;-69
2022/07/18 04:39:56;;;;;;;6.93;3.40;;;;;;;20.03;43.27;98173.03;5067697;28;20424;-69
2022/07/18 04:42:21;;;;;;;3.70;2.73;;;;;;;20.08;43.14;98171.44;5069792;28;20543;-70
2022/07/18 04:44:47;;;;;;;2.40;2.20;;;;;;;20.10;42.62;98164.09;5066433;28;20316;-70
2022/07/18 04:47:12;;;;;;;4.60;2.80;;;;;;;20.17;42.70;98165.97;5062654;28;20265;-69
2022/07/18 04:49:38;;;;;;;3.17;2.50;;;;;;;20.23;43.05;98168.69;5068819;28;20673;-69
2022/07/18 04:52:03;;;;;;;8.23;3.60;;;;;;;20.29;43.19;98161.78;5070217;28;20286;-69
2022/07/18 04:54:29;;;;;;;6.50;3.70;;;;;;;20.30;43.81;98170.63;5062133;28;20209;-69
2022/07/18 04:56:54;;;;;;;5.40;3.03;;;;;;;20.33;44.02;98165.72;5066682;28;20602;-70
2022/07/18 04:59:20;;;;;;;3.90;2.60;;;;;;;20.38;44.05;98171.31;5070026;28;20182;-69
2022/07/18 05:01:45;;;;;;;3.80;3.10;;;;;;;20.47;43.67;98176.50;5070245;28;20286;-69
2022/07/18 05:04:11;;;;;;;15.23;3.73;;;;;;;20.53;42.89;98178.41;5065132;28;20520;-70
2022/07/18 05:06:36;;;;;;;4.57;3.53;;;;;;;20.57;42.46;98174.31;5069974;28;20184;-69
2022/07/18 05:09:02;;;;;;;4.77;2.70;;;;;;;20.61;42.36;98166.75;5077706;28;20188;-69
2022/07/18 05:11:27;;;;;;;5.57;3.57;;;;;;;20.67;42.60;98169.47;5069677;28;20204;-70
2022/07/18 05:13:52;;;;;;;4.17;3.20;;;;;;;20.73;42.16;98167.88;5070878;28;20786;-68
2022/07/18 05:16:18;;;;;;;7.27;4.30;;;;;;;20.80;41.69;98167.94;5069516;28;20190;-69
2022/07/18 05:18:43;;;;;;;8.77;3.57;;;;;;;20.86;41.37;98164.50;5070053;28;20193;-69
2022/07/18 05:21:09;;;;;;;4.03;3.00;;;;;;;20.94;40.84;98169.69;5070927;28;20189;-70
2022/07/18 05:23:34;;;;;;;5.70;3.20;;;;;;;20.98;39.55;98160.28;5069073;28;20170;-70
2022/07/18 05:26:00;;;;;;;9.23;3.07;;;;;;;21.02;38.49;98161.53;5069924;28;20181;-69
2022/07/18 05:28:25;;;;;;;3.27;2.70;;;;;;;21.08;38.44;98167.09;5062642;28;20179;-69
2022/07/18 05:30:54;;;;;;;8.97;2.80;;;;;;;21.16;38.57;98165.09;5067321;28;20262;-70
2022/07/18 05:33:19;;;;;;;7.00;2.93;;;;;;;21.25;38.16;98171.09;5069361;28;20235;-69
2022/07/18 05:35:45;;;;;;;6.53;2.70;;;;;;;21.36;38.33;98167.03;5068132;28;20421;-69
2022/07/18 05:38:10;;;;;;;6.83;2.87;;;;;;;21.48;37.92;98167.28;5066473;28;20185;-69
2022/07/18 05:40:35;;;;;;;7.37;3.40;;;;;;;21.59;37.90;98164.06;5069281;28;20302;-69
2022/07/18 05:43:01;;;;;;;4.53;2.90;;;;;;;21.71;37.77;98158.16;5069019;28;20202;-70
2022/07/18 05:45:26;;;;;;;6.60;2.27;;;;;;;21.82;37.46;98162.09;5058001;28;20684;-69
2022/07/18 05:47:52;;;;;;;7.13;2.77;;;;;;;21.96;37.79;98165.59;5068350;28;20193;-68
2022/07/18 05:50:18;;;;;;;3.97;2.70;;;;;;;22.06;37.39;98171.34;5069670;28;20294;-69
2022/07/18 05:52:44;;;;;;;5.73;2.80;;;;;;;22.17;36.97;98164.59;5065791;28;21007;-71
2022/07/18 05:55:10;;;;;;;5.73;2.63;;;;;;;22.27;36.73;98166.88;5069462;28;20588;-71
2022/07/18 05:57:36;;;;;;;11.90;2.70;;;;;;;22.42;36.53;98164.03;5074676;28;20424;-69
2022/07/18 06:00:04;;;;;;;4.47;2.80;;;;;;;22.51;36.46;98163.63;5070808;28;20186;-69
2022/07/18 06:02:30;;;;;;;6.90;2.70;;;;;;;22.65;36.53;98163.63;5070163;28;20288;-69
2022/07/18 06:04:55;;;;;;;9.47;2.70;;;;;;;22.81;36.83;98168.50;5062202;28;20997;-69
2022/07/18 06:07:21;;;;;;;6.80;2.57;;;;;;;22.95;36.66;98168.50;5053027;28;20183;-70
2022/07/18 06:09:46;;;;;;;6.33;2.40;;;;;;;23.07;36.19;98166.81;5061355;28;20193;-69
2022/07/18 06:12:12;;;;;;;4.23;2.50;;;;;;;23.23;36.27;98164.75;5061433;28;20219;-70
2022/07/18 06:14:37;;;;;;;5.13;2.77;;;;;;;23.39;36.12;98169.63;5061384;28;20298;-69
2022/07/18 06:17:03;;;;;;;4.60;2.40;;;;;;;23.40;34.73;98163.25;5056810;28;20194;-68
2022/07/18 06:19:28;;;;;;;5.70;2.67;;;;;;;23.60;35.07;98165.00;5061494;28;20265;-68
2022/07/18 06:21:54;;;;;;;9.53;2.53;;;;;;;23.75;34.68;98162.88;5056003;28;20207;-71
2022/07/18 06:24:19;;;;;;;3.73;2.73;;;;;;;23.90;34.45;98159.91;5059718;28;20324;-68
2022/07/18 06:26:44;;;;;;;5.20;2.50;;;;;;;24.05;34.40;98161.50;5053835;28;20227;-69
2022/07/18 06:29:10;;;;;;;4.70;2.70;;;;;;;24.22;34.58;98165.31;5063394;28;20184;-68
2022/07/18 06:31:36;;;;;;;4.97;3.30;;;;;;;24.39;34.15;98154.88;5060271;28;20210;-68
2022/07/18 06:34:02;;;;;;;9.17;4.00;;;;;;;24.55;33.83;98152.69;5055938;28;20772;-68
2022/07/18 06:36:27;;;;;;;7.40;2.80;;;;;;;24.72;33.79;98165.53;5060563;28;20385;-68
2022/07/18 06:38:53;;;;;;;7.67;3.10;;;;;;;24.87;33.57;98162.50;5054376;28;20240;-69
2022/07/18 06:41:19;;;;;;;7.80;3.73;;;;;;;25.01;33.15;98169.38;5061629;28;20621;-68
2022/07/18 06:43:45;;;;;;;4.03;2.60;;;;;;;25.15;33.12;98168.16;5069071;28;20175;-68
2022/07/18 06:46:10;;;;;;;6.03;3.40;;;;;;;25.30;33.09;98173.19;5070150;28;20440;-68
2022/07/18 06:48:36;;;;;;;7.97;3.40;;;;;;;25.44;32.33;98162.31;5062540;28;20540;-68
2022/07/18 06:51:02;;;;;;;8.23;2.70;;;;;;;25.59;32.72;98168.09;5056404;28;20182;-69
2022/07/18 06:53:28;;;;;;;4.30;2.50;;;;;;;25.73;32.78;98160.69;5066913;28;20188;-69
2022/07/18 06:55:54;;;;;;;8.67;2.87;;;;;;;25.88;32.26;98162.97;5058263;28;20814;-69
2022/07/18 06:58:20;;;;;;;15.60;6.70;;;;;;;26.05;32.39;98159.63;5058852;28;20609;-70
2022/07/18 07:00:46;;;;;;;8.27;2.53;;;;;;;26.19;32.23;98154.88;5052776;28;20429;-69
2022/07/18 07:03:11;;;;;;;10.53;2.90;;;;;;;26.36;31.63;98163.09;5053784;28;20772;-68
2022/07/18 07:05:37;;;;;;;8.27;3.00;;;;;;;26.36;30.61;98157.72;5057943;28;20185;-71
2022/07/18 07:08:02;;;;;;;9.47;2.70;;;;;;;26.48;30.64;98155.84;5054850;28;20207;-69
2022/07/18 07:10:28;;;;;;;12.47;2.53;;;;;;;26.65;30.75;98149.81;5060512;28;20210;-69
2022/07/18 07:12:53;;;;;;;6.37;2.30;;;;;;;26.82;30.81;98147.25;5056875;28;20298;-70
2022/07/18 07:15:21;;;;;;;16.33;3.20;;;;;;;26.78;30.38;98154.97;5055077;28;20336;-69
2022/07/18 07:17:47;;;;;;;12.57;2.83;;;;;;;26.94;29.76;98155.31;5059038;28;20231;-71
2022/07/18 07:20:13;;;;;;;5.43;2.20;;;;;;;27.03;29.29;98155.78;5066883;28;20522;-69
2022/07/18 07:22:50;;;;;;;7.70;2.70;;;;;;;27.19;29.44;98143.47;5056987;28;20293;-68
2022/07/18 07:25:17;;;;;;;6.73;2.57;;;;;;;27.23;29.38;98150.81;5062354;28;20482;-68
2022/07/18 07:27:42;;;;;;;11.47;2.50;;;;;;;27.38;29.43;98146.81;5061931;28;20902;-68
2022/07/18 07:30:08;;;;;;;10.30;2.70;;;;;;;27.54;29.57;98143.34;5066001;28;20509;-68
2022/07/18 07:32:35;;;;;;;10.13;2.80;;;;;;;27.72;29.74;98145.03;5061420;28;20238;-69
2022/07/18 07:35:02;;;;;;;9.53;2.53;;;;;;;27.92;29.25;98143.78;5058753;28;20465;-69
2022/07/18 07:37:27;;;;;;;8.13;2.00;;;;;;;28.07;28.09;98142.44;5067100;28;20528;-67
2022/07/18 07:39:52;;;;;;;18.67;2.53;;;;;;;27.94;26.71;98143.53;5065768;28;20468;-68
2022/07/18 07:42:18;;;;;;;8.77;2.47;;;;;;;28.08;27.29;98144.06;5066660;28;20294;-68
2022/07/18 07:44:43;;;;;;;6.50;2.13;;;;;;;28.28;27.40;98141.72;5063644;28;20649;-69
2022/07/18 07:47:09;;;;;;;7.80;2.23;;;;;;;28.47;27.04;98146.88;5074585;28;20188;-69
2022/07/18 07:49:36;;;;;;;11.53;2.40;;;;;;;28.63;27.48;98134.44;5074943;28;20218;-71
2022/07/18 07:52:02;;;;;;;3.73;1.90;;;;;;;28.80;27.48;98139.81;5076490;28;20225;-68
2022/07/18 07:54:27;;;;;;;4.13;2.33;;;;;;;28.95;26.83;98141.91;5067585;28;20465;-70
2022/07/18 07:56:53;;;;;;;12.10;2.40;;;;;;;29.05;25.72;98143.94;5074077;28;20264;-70
2022/07/18 07:59:18;;;;;;;5.77;3.13;;;;;;;29.15;25.67;98135.94;5067434;28;20265;-69
2022/07/18 08:01:43;;;;;;;7.23;1.83;;;;;;;29.31;25.45;98133.44;5062627;28;20233;-68
2022/07/18 08:04:09;;;;;;;5.70;2.10;;;;;;;29.09;24.53;98129.69;5066352;28;20209;-70
2022/07/18 08:06:34;;;;;;;3.80;1.87;;;;;;;29.31;25.15;98128.06;5073180;28;20278;-69
2022/07/18 08:09:00;;;;;;;6.23;1.90;;;;;;;28.94;24.36;98130.31;5064410;28;20264;-68
2022/07/18 08:11:25;;;;;;;9.50;2.23;;;;;;;29.25;24.80;98117.19;5064250;28;20194;-69
2022/07/18 08:13:51;;;;;;;8.70;2.10;;;;;;;29.42;24.80;98121.72;5069150;28;20226;-69
2022/07/18 08:16:16;;;;;;;6.83;2.20;;;;;;;29.64;25.27;98124.41;5070747;28;20706;-68
2022/07/18 08:18:42;;;;;;;4.33;1.93;;;;;;;29.82;23.92;98122.38;5070665;28;20201;-69
2022/07/18 08:21:07;;;;;;;4.73;1.80;;;;;;;30.01;24.13;98121.00;5072318;28;20276;-69
2022/07/18 08:23:33;;;;;;;5.20;2.30;;;;;;;30.21;24.01;98124.91;5071877;28;20181;-69
2022/07/18 08:25:58;;;;;;;5.30;1.93;;;;;;;30.41;24.00;98124.25;5062102;28;20248;-69
2022/07/18 08:28:24;;;;;;;6.50;2.30;;;;;;;30.61;24.27;98123.59;5061926;28;20276;-71
2022/07/18 08:30:50;;;;;;;7.03;3.30;;;;;;;30.83;24.28;98116.44;5059905;28;20179;-68
2022/07/18 08:33:15;;;;;;;6.80;2.60;;;;;;;31.02;23.98;98120.28;5056908;28;20457;-67
2022/07/18 08:35:40;;;;;;;3.30;2.10;;;;;;;31.20;23.82;98118.25;5053669;28;20211;-68
2022/07/18 08:38:06;;;;;;;5.10;3.83;;;;;;;31.38;23.34;98120.44;5052594;28;20270;-68
2022/07/18 08:40:31;;;;;;;3.97;2.30;;;;;;;31.51;23.54;98112.91;5057709;28;20692;-69
2022/07/18 08:42:58;;;;;;;4.70;2.80;;;;;;;31.66;23.32;98118.34;5061876;28;20251;-68
2022/07/18 08:45:24;;;;;;;17.17;3.87;;;;;;;31.83;23.51;98120.03;5052504;28;20211;-70
2022/07/18 08:47:50;;;;;;;8.90;2.20;;;;;;;31.81;22.75;98116.78;5058344;28;20509;-69
2022/07/18 08:50:16;;;;;;;5.20;2.43;;;;;;;32.01;22.86;98110.56;5056747;28;20516;-69
2022/07/18 08:52:41;;;;;;;4.93;2.70;;;;;;;32.16;22.56;98112.47;5058558;28;20200;-68
2022/07/18 08:55:08;;;;;;;7.20;2.33;;;;;;;32.16;22.18;98112.47;5065064;28;20206;-69
2022/07/18 08:57:33;;;;;;;6.00;2.70;;;;;;;32.32;22.37;98111.41;5057443;28;20177;-69
2022/07/18 08:59:59;;;;;;;4.40;2.20;;;;;;;32.46;22.49;98111.63;5062173;28;20797;-70
2022/07/18 09:02:27;;;;;;;6.93;2.80;;;;;;;32.62;22.37;98108.91;5063154;28;20253;-67
2022/07/18 09:04:53;;;;;;;9.90;2.20;;;;;;;32.39;21.24;98118.44;5064719;28;20183;-68
2022/07/18 09:07:34;;;;;;;2.00;1.80;;;;;;;32.57;20.97;98122.50;5063913;28;20530;-70
2022/07/18 09:10:02;;;;;;;6.10;2.03;;;;;;;32.71;20.53;98128.94;5070348;28;20271;-69
2022/07/18 09:12:30;;;;;;;2.80;2.23;;;;;;;32.86;21.04;98120.00;5072576;28;20857;-69
2022/07/18 09:14:57;;;;;;;4.43;1.80;;;;;;;33.05;20.77;98122.09;5070447;28;20986;-69
2022/07/18 09:17:25;;;;;;;3.40;2.00;;;;;;;33.21;19.51;98120.94;5065970;28;20512;-69
2022/07/18 09:19:56;;;;;;;5.57;1.93;;;;;;;33.37;20.13;98123.63;5065303;28;20417;-68
2022/07/18 09:22:23;;;;;;;3.57;2.00;;;;;;;33.40;19.49;98125.75;5069495;28;20444;-70
2022/07/18 09:24:53;;;;;;;1.70;1.60;;;;;;;33.52;19.18;98128.94;5070904;28;20420;-70
2022/07/18 09:27:34;;;;;;;8.43;1.80;;;;;;;33.70;19.30;98129.38;5069694;28;20428;-69
2022/07/18 09:30:29;;;;;;;3.30;2.07;;;;;;;33.85;18.93;98123.84;5073169;28;20423;-70
2022/07/18 09:33:08;;;;;;;4.83;2.10;;;;;;;34.04;18.62;98119.66;5060895;28;20560;-67
2022/07/18 09:35:35;;;;;;;2.67;1.80;;;;;;;34.18;18.62;98117.91;5053679;28;20509;-67
2022/07/18 09:38:05;;;;;;;3.20;2.50;;;;;;;34.32;19.38;98125.41;5054664;28;20430;-69
2022/07/18 09:40:32;;;;;;;4.40;1.57;;;;;;;34.18;18.02;98122.53;5051243;28;20434;-71
2022/07/18 09:43:00;;;;;;;3.30;1.70;;;;;;;34.14;17.48;98108.69;5063044;28;20441;-69
2022/07/18 09:45:34;;;;;;;3.77;1.80;;;;;;;34.37;18.42;98115.28;5058007;28;20428;-69
2022/07/18 09:48:07;;;;;;;4.50;1.80;;;;;;;34.52;18.00;98111.63;5063434;28;20434;-70
2022/07/18 09:50:37;;;;;;;2.70;2.10;;;;;;;34.62;17.87;98105.28;5056278;28;20409;-69
2022/07/18 09:53:11;;;;;;;2.83;1.57;;;;;;;34.68;18.09;98109.56;5064525;28;20456;-69
2022/07/18 09:55:47;;;;;;;4.20;1.77;;;;;;;34.78;17.66;98105.13;5057795;28;21026;-69
2022/07/18 09:58:18;;;;;;;2.93;1.87;;;;;;;34.92;18.03;98108.75;5068062;28;20449;-69
2022/07/18 10:00:44;;;;;;;9.73;1.90;;;;;;;35.00;17.46;98113.59;5072229;28;20915;-71
2022/07/18 10:03:10;;;;;;;5.03;2.70;;;;;;;35.08;17.64;98103.13;5057185;28;20445;-69
2022/07/18 10:05:38;;;;;;;2.30;2.10;;;;;;;35.18;17.51;98098.38;5066742;28;20649;-69
2022/07/18 10:08:09;;;;;;;2.43;1.50;;;;;;;35.31;17.52;98101.47;5060013;28;20197;-69
2022/07/18 10:10:36;;;;;;;3.67;1.60;;;;;;;35.41;17.54;98101.34;5062033;28;20463;-71
2022/07/18 10:13:03;;;;;;;2.43;2.23;;;;;;;35.46;17.20;98108.66;5061124;28;20453;-69
2022/07/18 10:15:30;;;;;;;1.90;1.47;;;;;;;35.39;16.56;98102.75;5059603;28;20604;-71
2022/07/18 10:17:57;;;;;;;7.03;1.67;;;;;;;35.45;16.12;98098.84;5056901;28;20530;-70
2022/07/18 10:20:44;;;;;;;4.80;1.57;;;;;;;35.59;16.82;98104.41;5057115;28;20423;-69
2022/07/18 10:23:19;;;;;;;1.80;1.50;;;;;;;35.73;17.10;98110.69;5055480;28;20533;-70
2022/07/18 10:26:15;;;;;;;1.50;1.40;;;;;;;35.86;17.05;98103.69;5055206;28;20425;-70
2022/07/18 10:28:55;;;;;;;2.10;1.63;;;;;;;35.85;16.59;98098.56;5054839;28;20421;-69
2022/07/18 10:31:22;;;;;;;2.03;1.60;;;;;;;35.82;16.67;98103.47;5054260;28;20417;-68
2022/07/18 10:33:48;;;;;;;2.83;1.53;;;;;;;35.82;16.16;98100.75;5053713;28;20468;-69
2022/07/18 10:36:17;;;;;;;1.40;1.30;;;;;;;35.97;17.03;98102.44;5053997;28;20451;-68
2022/07/18 10:39:06;;;;;;;2.60;1.50;;;;;;;36.08;16.67;98096.81;5050590;28;20416;-69
2022/07/18 10:41:32;;;;;;;3.20;1.50;;;;;;;36.22;16.56;98099.59;5059626;28;20429;-69
2022/07/18 10:43:57;;;;;;;4.10;1.43;;;;;;;36.27;16.33;98096.75;5071818;28;20409;-68
2022/07/18 10:46:22;;;;;;;2.40;1.40;;;;;;;36.26;16.00;98100.59;5061270;28;20487;-68
2022/07/18 10:48:53;;;;;;;3.63;1.70;;;;;;;36.23;16.39;98099.28;5061292;28;20185;-68
2022/07/18 10:51:19;;;;;;;3.00;1.40;;;;;;;36.35;16.12;98087.06;5066163;28;20192;-68
2022/07/18 10:53:54;;;;;;;2.57;1.53;;;;;;;36.42;16.02;98088.31;5056121;28;21087;-68
2022/07/18 10:56:20;;;;;;;3.23;1.50;;;;;;;36.45;16.22;98088.84;5068369;28;20434;-68
2022/07/18 10:58:46;;;;;;;2.13;1.50;;;;;;;36.53;15.72;98086.22;5062617;28;20413;-69
2022/07/18 11:01:16;;;;;;;2.60;1.90;;;;;;;36.63;16.06;98085.19;5065115;28;20493;-68
2022/07/18 11:03:42;;;;;;;4.83;2.27;;;;;;;36.81;16.29;98085.41;5060371;28;20174;-67
2022/07/18 11:06:08;;;;;;;5.80;1.80;;;;;;;36.86;14.84;98085.31;5060733;28;20420;-69
2022/07/18 11:08:34;;;;;;;4.87;1.90;;;;;;;36.97;15.49;98078.56;5056895;28;20182;-69
2022/07/18 11:11:02;;;;;;;2.87;1.17;;;;;;;36.99;14.96;98075.50;5076219;28;20185;-70
2022/07/18 11:13:28;;;;;;;1.70;1.60;;;;;;;37.07;14.96;98076.72;5074694;28;20675;-69
2022/07/18 11:16:13;;;;;;;1.73;1.30;;;;;;;37.11;14.65;98072.28;5065582;28;20427;-70
2022/07/18 11:18:38;;;;;;;1.90;1.33;;;;;;;37.22;15.11;98068.19;5060760;28;20173;-68
2022/07/18 11:21:16;;;;;;;2.80;1.20;;;;;;;37.23;14.88;98069.00;5060140;28;20428;-70
2022/07/18 11:23:43;;;;;;;1.50;1.40;;;;;;;37.17;13.94;98066.38;5059716;28;20186;-72
2022/07/18 11:26:14;;;;;;;7.00;3.40;;;;;;;37.00;14.51;98066.22;5061572;28;20785;-72
2022/07/18 11:28:39;;;;;;;1.60;1.50;;;;;;;37.07;14.40;98060.34;5063738;28;20420;-70
2022/07/18 11:31:10;;;;;;;3.17;1.50;;;;;;;37.10;14.60;98063.25;5056698;28;20953;-70
2022/07/18 11:33:41;;;;;;;2.10;1.33;;;;;;;37.02;13.93;98058.53;5062203;28;20197;-69
2022/07/18 11:36:12;;;;;;;1.30;1.10;;;;;;;37.10;13.61;98051.53;5058535;28;20951;-70